Time;durP1;ratioP1;P1;durP2;ratioP2;P2;SDS_P1;SDS_P2;PMS_P1;PMS_P2;Temp;Humidity;BMP_temperature;BMP_pressure;BME280_temperature;BME280_humidity;BME280_pressure;Samples;Min_cycle;Max_cycle;Signal;HPM_P1;HPM_P2
2022/10/25 08:14:28;;;;;;;3.97;1.40;;;;;;;16.84;80.26;99091.66;5170438;27;21412;-84
2022/10/25 08:16:56;;;;;;;4.03;1.47;;;;;;;17.26;77.44;99104.22;5152434;27;38891;-83
2022/10/25 08:19:24;;;;;;;3.40;1.40;;;;;;;17.71;75.86;99112.78;5153346;27;42889;-86
2022/10/25 08:21:51;;;;;;;2.63;1.17;;;;;;;18.06;75.36;99120.38;5153052;27;44175;-89
2022/10/25 08:24:19;;;;;;;2.57;0.90;;;;;;;18.24;73.39;99127.63;5169435;27;42344;-89
2022/10/25 08:26:47;;;;;;;4.23;1.20;;;;;;;18.35;72.26;99129.34;5170061;27;41395;-83
2022/10/25 08:29:14;;;;;;;2.27;1.30;;;;;;;18.38;72.62;99114.81;5170613;27;41640;-90
2022/10/25 08:31:43;;;;;;;5.30;1.67;;;;;;;18.46;71.92;99117.66;5170495;27;43802;-88
2022/10/25 08:34:11;;;;;;;2.90;1.00;;;;;;;18.39;70.60;99111.16;5152462;27;42994;-85
2022/10/25 08:36:39;;;;;;;3.23;1.60;;;;;;;18.34;70.35;99118.75;5153451;27;39658;-86
2022/10/25 08:39:06;;;;;;;3.10;1.30;;;;;;;18.40;70.82;99107.50;5152218;27;42507;-81
2022/10/25 08:41:43;;;;;;;4.93;1.40;;;;;;;18.47;70.37;99122.03;5171558;27;42770;-83
2022/10/25 08:44:16;;;;;;;5.83;1.37;;;;;;;18.42;70.95;99105.53;5170620;27;42163;-86
2022/10/25 08:46:55;;;;;;;1.90;1.40;;;;;;;18.55;70.26;99116.81;5153444;27;38948;-84
2022/10/25 08:49:28;;;;;;;2.03;1.03;;;;;;;18.53;70.60;99122.34;5153122;27;40597;-86
2022/10/25 08:51:58;;;;;;;2.73;1.50;;;;;;;18.26;70.54;99095.31;5152767;27;43892;-86
2022/10/25 08:54:29;;;;;;;2.93;1.07;;;;;;;18.29;70.08;99120.03;5152503;27;41243;-87
2022/10/25 08:57:04;;;;;;;4.23;1.50;;;;;;;18.37;70.65;99129.22;5152376;27;38969;-84
2022/10/25 08:59:38;;;;;;;5.83;1.37;;;;;;;18.23;69.84;99136.66;5153208;27;40836;-89
2022/10/25 09:02:17;;;;;;;4.53;1.30;;;;;;;18.27;70.37;99130.06;5152048;27;44396;-91
2022/10/25 09:04:45;;;;;;;7.70;2.17;;;;;;;18.21;70.37;99114.50;5153345;27;41258;-90
2022/10/25 09:07:43;;;;;;;2.50;0.87;;;;;;;18.12;70.99;99077.81;5152305;27;40465;-85
2022/10/25 09:10:20;;;;;;;3.63;1.37;;;;;;;18.55;70.50;99104.25;5137367;27;41933;-89
2022/10/25 09:12:56;;;;;;;3.30;1.10;;;;;;;19.04;69.41;99137.31;5167271;27;42441;-93
2022/10/25 09:15:39;;;;;;;3.63;1.30;;;;;;;19.23;69.17;99129.25;5152998;27;41067;-85
2022/10/25 09:18:15;;;;;;;3.17;1.10;;;;;;;19.50;67.53;99144.66;5152527;27;38829;-87
2022/10/25 09:20:49;;;;;;;3.50;1.30;;;;;;;19.68;67.12;99145.56;5152534;27;40583;-87
2022/10/25 09:23:26;;;;;;;2.33;1.10;;;;;;;19.83;66.77;99131.66;5166511;27;43849;-86
2022/10/25 09:26:02;;;;;;;2.90;1.30;;;;;;;19.99;66.50;99137.25;5137754;27;42414;-84
2022/10/25 09:28:41;;;;;;;2.23;1.27;;;;;;;20.21;66.17;99142.22;5153654;27;40096;-82
2022/10/25 09:31:14;;;;;;;4.70;1.40;;;;;;;20.49;65.83;99144.94;5138667;27;40680;-82
2022/10/25 09:33:47;;;;;;;3.43;1.30;;;;;;;20.63;64.80;99147.97;5172456;27;41355;-84
2022/10/25 09:36:15;;;;;;;4.07;1.30;;;;;;;20.71;64.52;99149.88;5156893;27;42290;-89
2022/10/25 09:38:47;;;;;;;3.03;0.90;;;;;;;20.80;63.82;99139.03;5155298;27;39565;-86
2022/10/25 09:41:19;;;;;;;3.70;1.30;;;;;;;20.76;63.08;99124.22;5138360;27;42082;-85
2022/10/25 09:43:53;;;;;;;2.97;1.10;;;;;;;21.00;62.92;99150.50;5138509;27;41792;-90
2022/10/25 09:46:25;;;;;;;4.87;1.10;;;;;;;21.00;61.59;99161.28;5156340;27;42511;-87
2022/10/25 09:48:59;;;;;;;2.63;1.00;;;;;;;20.99;61.63;99164.97;5152195;27;39931;-86
2022/10/25 09:51:33;;;;;;;5.17;1.50;;;;;;;20.89;61.46;99158.81;5138330;27;41700;-87
2022/10/25 09:54:07;;;;;;;2.97;1.30;;;;;;;20.95;60.66;99157.34;5137397;27;42918;-88
2022/10/25 09:56:34;;;;;;;4.70;1.37;;;;;;;21.00;59.59;99172.06;5138483;27;40883;-89
2022/10/25 09:59:03;;;;;;;1.77;0.90;;;;;;;20.93;60.64;99159.34;5137703;27;40450;-85
2022/10/25 10:01:40;;;;;;;3.73;1.27;;;;;;;21.01;60.76;99165.66;5138323;27;42006;-85
2022/10/25 10:04:25;;;;;;;4.00;1.03;;;;;;;20.98;59.66;99171.34;5137629;27;41702;-86
2022/10/25 10:06:57;;;;;;;3.53;0.93;;;;;;;20.86;59.46;99169.91;5138161;27;42442;-85
2022/10/25 10:09:29;;;;;;;3.40;1.40;;;;;;;20.66;59.89;99171.84;5152782;27;39904;-86
2022/10/25 10:12:00;;;;;;;3.13;1.07;;;;;;;20.64;60.50;99167.66;5151928;27;41735;-82
2022/10/25 10:14:33;;;;;;;3.80;1.40;;;;;;;20.65;60.71;99161.25;5137223;27;42851;-84
2022/10/25 10:17:01;;;;;;;2.77;1.13;;;;;;;20.70;60.45;99153.56;5151519;27;42271;-85
2022/10/25 10:19:31;;;;;;;1.17;0.77;;;;;;;21.34;59.32;99171.34;5137325;27;38650;-82
2022/10/25 10:22:00;;;;;;;1.70;1.20;;;;;;;21.55;58.45;99179.94;5154868;27;41770;-87
2022/10/25 10:24:30;;;;;;;2.67;0.97;;;;;;;21.51;57.77;99159.72;5154243;27;42738;-84
2022/10/25 10:27:00;;;;;;;2.87;0.80;;;;;;;21.62;57.34;99183.69;5137385;27;42087;-87
2022/10/25 10:29:29;;;;;;;10.03;1.23;;;;;;;21.71;57.14;99177.34;5137187;27;40010;-85
2022/10/25 10:32:00;;;;;;;4.53;1.27;;;;;;;21.93;56.11;99126.56;5136893;27;42674;-87
2022/10/25 10:34:32;;;;;;;2.43;1.60;;;;;;;22.67;54.18;99193.34;5136970;27;41743;-83
2022/10/25 10:37:06;;;;;;;2.50;1.17;;;;;;;23.19;54.20;99181.31;5151216;27;42139;-84
2022/10/25 10:39:34;;;;;;;3.87;0.90;;;;;;;25.29;50.69;99187.03;5137465;27;39175;-86
2022/10/25 10:42:15;;;;;;;2.57;0.93;;;;;;;25.13;49.37;99205.28;5154037;27;40833;-79
2022/10/25 10:45:01;;;;;;;4.73;1.00;;;;;;;24.73;49.10;99204.47;5152102;27;42738;-85
2022/10/25 10:47:33;;;;;;;3.33;1.27;;;;;;;25.30;48.35;99206.88;5150216;27;42340;-87
2022/10/25 10:50:11;;;;;;;3.83;1.20;;;;;;;25.10;47.86;99206.47;5137095;27;38848;-86
2022/10/25 10:52:42;;;;;;;4.27;1.23;;;;;;;24.65;49.23;99197.25;5150909;27;41736;-83
2022/10/25 10:55:18;;;;;;;3.57;0.80;;;;;;;24.20;49.24;99203.34;5153776;27;43067;-86
2022/10/25 10:57:46;;;;;;;4.87;1.30;;;;;;;23.76;49.37;99188.56;5153683;27;41224;-84
2022/10/25 11:00:21;;;;;;;2.37;0.77;;;;;;;24.04;50.38;99181.75;5153716;27;40822;-85
2022/10/25 11:02:49;;;;;;;3.07;1.47;;;;;;;24.13;50.29;99196.06;5136052;27;41268;-85
2022/10/25 11:05:25;;;;;;;3.17;0.90;;;;;;;23.99;48.56;99193.06;5153798;27;42627;-83
2022/10/25 11:07:55;;;;;;;3.13;1.17;;;;;;;24.12;48.69;99164.63;5150757;27;42645;-86
2022/10/25 11:10:32;;;;;;;2.07;0.97;;;;;;;24.56;48.77;99190.19;5136693;27;40389;-86
2022/10/25 11:13:10;;;;;;;3.23;1.30;;;;;;;26.49;45.45;99223.19;5151731;27;42717;-89
2022/10/25 11:16:13;;;;;;;3.23;1.33;;;;;;;27.31;42.53;99237.38;5137373;27;42880;-85
2022/10/25 11:19:07;;;;;;;3.60;1.30;;;;;;;26.72;43.00;99225.78;5103465;27;42252;-89
2022/10/25 11:21:51;;;;;;;2.50;1.17;;;;;;;25.81;44.86;99216.13;5136541;27;38518;-86
2022/10/25 11:24:29;;;;;;;2.57;1.00;;;;;;;25.43;46.12;99198.97;5135935;27;43871;-86
2022/10/25 11:27:08;;;;;;;3.03;1.03;;;;;;;25.15;45.94;99186.97;5136261;27;41770;-87
2022/10/25 11:29:46;;;;;;;2.90;1.10;;;;;;;24.90;45.92;99213.38;5136887;27;42576;-86
2022/10/25 11:32:45;;;;;;;2.40;0.90;;;;;;;24.50;46.21;99188.19;5136326;27;40405;-87
2022/10/25 11:35:29;;;;;;;3.17;1.17;;;;;;;25.37;45.86;99208.66;5136698;27;42166;-86
2022/10/25 11:38:05;;;;;;;4.77;1.10;;;;;;;25.45;46.18;99212.34;5135862;27;41847;-87
2022/10/25 11:40:39;;;;;;;2.47;1.10;;;;;;;24.84;46.26;99197.84;5136558;27;42815;-87
2022/10/25 11:43:27;;;;;;;2.77;1.10;;;;;;;24.24;45.76;99215.53;5151580;27;39955;-87
2022/10/25 11:45:59;;;;;;;1.97;1.00;;;;;;;23.69;47.66;99196.53;5149900;27;42628;-86
2022/10/25 11:48:38;;;;;;;3.20;1.20;;;;;;;23.51;48.81;99201.25;5149568;27;43639;-86
2022/10/25 11:51:17;;;;;;;2.63;1.00;;;;;;;24.70;47.65;99203.00;5134955;27;41381;-86
2022/10/25 11:54:10;;;;;;;2.93;1.07;;;;;;;29.31;39.75;99258.41;5153703;27;38431;-84
2022/10/25 11:56:48;;;;;;;2.20;1.03;;;;;;;32.80;34.83;99267.88;5141976;27;41740;-85
2022/10/25 11:59:22;;;;;;;2.67;0.83;;;;;;;34.85;31.77;99267.44;5122954;27;44104;-86
2022/10/25 12:02:08;;;;;;;2.08;1.00;;;;;;;36.40;28.06;99291.84;5122263;27;42492;-82
2022/10/25 12:04:52;;;;;;;2.65;1.10;;;;;;;38.63;25.21;99308.16;5135901;27;41384;-82
2022/10/25 12:07:25;;;;;;;1.58;0.85;;;;;;;38.28;26.02;99300.44;5122989;27;41302;-83
2022/10/25 12:10:03;;;;;;;2.33;0.80;;;;;;;37.43;26.46;99297.66;5131698;27;43399;-83
2022/10/25 12:12:40;;;;;;;2.65;1.10;;;;;;;35.58;28.43;99280.47;5128198;27;41626;-82
2022/10/25 12:15:16;;;;;;;1.67;0.87;;;;;;;33.91;29.44;99284.97;5128690;27;39731;-83
2022/10/25 12:17:44;;;;;;;4.30;0.80;;;;;;;32.34;31.08;99273.03;5115095;27;40876;-82
2022/10/25 12:20:21;;;;;;;1.83;1.50;;;;;;;31.01;32.08;99270.31;5116396;27;45387;-84
2022/10/25 12:22:52;;;;;;;2.60;1.00;;;;;;;29.78;33.53;99243.81;5114314;27;41076;-84
2022/10/25 12:25:26;;;;;;;2.50;1.00;;;;;;;29.01;35.35;99240.72;5133823;27;40876;-84
2022/10/25 12:28:05;;;;;;;1.90;0.80;;;;;;;28.21;36.28;99234.81;5119785;27;40940;-85
2022/10/25 12:30:34;;;;;;;2.67;0.90;;;;;;;27.54;36.40;99201.81;5134507;27;43824;-87
2022/10/25 12:33:13;;;;;;;4.57;1.30;;;;;;;26.94;37.86;99204.97;5156773;27;42460;-86
2022/10/25 12:35:48;;;;;;;2.23;1.30;;;;;;;26.44;38.84;99212.06;5154567;27;39875;-81
2022/10/25 12:38:20;;;;;;;1.80;1.00;;;;;;;25.97;40.02;99187.94;5159795;27;40521;-84
2022/10/25 12:40:53;;;;;;;3.43;0.90;;;;;;;25.80;40.30;99202.72;5150666;27;42742;-87
2022/10/25 12:43:30;;;;;;;1.83;0.80;;;;;;;25.51;40.48;99192.63;5149937;27;43009;-81
2022/10/25 12:46:16;;;;;;;1.73;0.90;;;;;;;25.27;41.20;99180.09;5152386;27;39267;-81
2022/10/25 12:49:12;;;;;;;2.13;0.83;;;;;;;25.10;41.56;99173.97;5153026;27;42169;-90
2022/10/25 12:51:52;;;;;;;1.57;0.73;;;;;;;25.24;41.33;99184.03;5152129;27;41409;-86
2022/10/25 12:54:48;;;;;;;1.20;0.90;;;;;;;25.38;41.09;99180.50;5149138;27;43173;-87
2022/10/25 12:57:27;;;;;;;0.60;0.50;;;;;;;25.19;40.44;99189.16;5152148;27;40548;-85
2022/10/25 13:00:08;;;;;;;3.30;0.73;;;;;;;24.96;39.66;99201.88;5136722;27;41934;-83
2022/10/25 13:03:15;;;;;;;3.50;0.60;;;;;;;24.76;40.68;99184.31;5154926;27;43991;-84
2022/10/25 13:06:28;;;;;;;1.07;0.80;;;;;;;24.84;41.84;99189.72;5153562;27;42432;-86
2022/10/25 13:09:05;;;;;;;0.87;0.70;;;;;;;24.78;41.71;99187.69;5135002;27;39006;-82
2022/10/25 13:11:37;;;;;;;1.17;0.60;;;;;;;24.59;42.33;99165.47;5154898;27;41714;-82
2022/10/25 13:14:16;;;;;;;0.50;0.50;;;;;;;24.57;42.33;99178.34;5156928;27;41612;-88
2022/10/25 13:16:44;;;;;;;1.00;0.67;;;;;;;24.68;41.22;99190.66;5139143;27;41212;-81
2022/10/25 13:19:24;;;;;;;1.83;0.77;;;;;;;24.69;41.54;99193.19;5156754;27;40071;-81
2022/10/25 13:22:29;;;;;;;1.30;0.70;;;;;;;24.92;42.22;99170.69;5153319;27;41750;-83
2022/10/25 13:24:58;;;;;;;1.40;0.70;;;;;;;25.09;41.57;99183.13;5138194;27;41721;-83
2022/10/25 13:27:27;;;;;;;1.03;0.60;;;;;;;25.04;41.95;99180.13;5137627;27;42660;-82
2022/10/25 13:30:04;;;;;;;0.70;0.57;;;;;;;25.17;42.83;99157.84;5138374;27;40485;-85
2022/10/25 13:32:33;;;;;;;1.23;0.63;;;;;;;25.79;41.27;99184.75;5154551;27;42125;-81
2022/10/25 13:35:02;;;;;;;0.67;0.53;;;;;;;26.21;39.85;99200.44;5155113;27;44660;-83
2022/10/25 13:37:42;;;;;;;0.97;0.60;;;;;;;27.05;38.51;99193.59;5154869;27;42424;-85
2022/10/25 13:40:23;;;;;;;0.50;0.50;;;;;;;28.80;35.33;99207.09;5138373;27;39139;-90
2022/10/25 13:43:01;;;;;;;1.30;0.63;;;;;;;30.33;32.56;99231.59;5137565;27;41348;-85
2022/10/25 13:45:42;;;;;;;1.83;0.60;;;;;;;30.83;32.42;99226.41;5138041;27;41586;-87
2022/10/25 13:48:19;;;;;;;0.70;0.50;;;;;;;30.03;33.65;99229.56;5137840;27;41069;-87
2022/10/25 13:50:52;;;;;;;0.90;0.63;;;;;;;29.08;34.26;99230.66;5137380;27;41638;-88
2022/10/25 13:53:24;;;;;;;0.97;0.50;;;;;;;28.18;35.92;99229.81;5137707;27;43243;-81
2022/10/25 13:56:05;;;;;;;1.00;0.60;;;;;;;27.32;37.27;99189.28;5152375;27;42752;-84
2022/10/25 13:58:57;;;;;;;2.80;1.00;;;;;;;26.88;37.92;99216.56;5137859;27;44104;-86
2022/10/25 14:01:56;;;;;;;1.23;0.80;;;;;;;26.87;38.76;99201.28;5134219;27;40040;-83
2022/10/25 14:04:38;;;;;;;2.30;0.60;;;;;;;26.70;39.10;99195.25;5119030;27;40839;-78
2022/10/25 14:07:49;;;;;;;1.23;0.70;;;;;;;26.91;38.45;99208.03;5153911;27;42594;-80
2022/10/25 14:10:26;;;;;;;0.53;0.53;;;;;;;26.68;39.21;99205.47;5127038;27;43346;-79
2022/10/25 14:13:01;;;;;;;0.80;0.80;;;;;;;26.28;39.43;99195.97;5154637;27;39130;-79
2022/10/25 14:15:37;;;;;;;0.70;0.40;;;;;;;25.94;40.21;99189.19;5152442;27;42549;-81
2022/10/25 14:18:17;;;;;;;1.20;0.47;;;;;;;25.50;40.68;99158.38;5154816;27;42991;-81
2022/10/25 14:20:47;;;;;;;0.60;0.60;;;;;;;25.27;41.81;99170.09;5137593;27;42418;-79
2022/10/25 14:23:18;;;;;;;1.50;0.50;;;;;;;24.85;42.19;99154.28;5155807;27;40489;-80
2022/10/25 14:25:51;;;;;;;1.47;0.50;;;;;;;24.70;43.44;99156.09;5152093;27;42589;-83
2022/10/25 14:28:23;;;;;;;1.53;0.80;;;;;;;24.38;43.01;99162.50;5154449;27;42612;-82
2022/10/25 14:30:53;;;;;;;0.63;0.47;;;;;;;24.07;43.30;99158.91;5137442;27;41576;-84
2022/10/25 14:33:25;;;;;;;2.87;0.83;;;;;;;23.79;43.92;99159.31;5137416;27;38956;-81
2022/10/25 14:35:55;;;;;;;1.10;0.50;;;;;;;23.45;44.39;99147.84;5137426;27;40671;-82
2022/10/25 14:38:25;;;;;;;2.47;0.70;;;;;;;23.12;44.82;99142.44;5155869;27;43952;-81
2022/10/25 14:40:56;;;;;;;1.17;0.80;;;;;;;22.90;45.49;99148.50;5136797;27;42241;-79
2022/10/25 14:43:30;;;;;;;1.03;0.60;;;;;;;22.64;46.51;99132.41;5137350;27;39778;-86
2022/10/25 14:46:00;;;;;;;1.63;0.80;;;;;;;22.52;46.59;99139.97;5136819;27;40654;-84
2022/10/25 14:48:30;;;;;;;2.07;0.67;;;;;;;22.35;46.35;99140.94;5154529;27;42424;-79
2022/10/25 14:51:03;;;;;;;2.90;0.70;;;;;;;22.15;47.15;99136.81;5155314;27;42220;-81
2022/10/25 14:53:31;;;;;;;1.00;0.57;;;;;;;21.96;48.02;99118.16;5137057;27;38848;-81
2022/10/25 14:56:01;;;;;;;2.80;0.73;;;;;;;21.75;48.48;99122.13;5153571;27;41061;-82
2022/10/25 14:58:39;;;;;;;1.13;0.70;;;;;;;21.53;48.70;99114.56;5136874;27;41469;-78
2022/10/25 15:01:11;;;;;;;1.27;0.70;;;;;;;21.13;49.35;99091.72;5154032;27;41191;-87
2022/10/25 15:03:43;;;;;;;1.80;0.60;;;;;;;21.01;50.03;99109.13;5152127;27;39872;-80
2022/10/25 15:06:12;;;;;;;3.13;0.60;;;;;;;20.84;50.15;99103.75;5152448;27;42709;-81
2022/10/25 15:08:43;;;;;;;1.67;0.60;;;;;;;20.67;50.23;99100.88;5136730;27;43052;-84
2022/10/25 15:11:16;;;;;;;2.17;0.70;;;;;;;20.52;50.61;99097.06;5136888;27;42300;-78
2022/10/25 15:13:45;;;;;;;1.57;0.70;;;;;;;20.35;51.20;99087.97;5154129;27;38964;-83
2022/10/25 15:16:33;;;;;;;0.60;0.50;;;;;;;20.14;51.72;99073.06;5154778;27;40405;-79
2022/10/25 15:19:19;;;;;;;1.80;0.70;;;;;;;20.05;51.92;99089.09;5153975;27;42836;-80
2022/10/25 15:21:48;;;;;;;2.03;0.70;;;;;;;19.78;52.02;99075.66;5152494;27;42335;-80
2022/10/25 15:24:19;;;;;;;2.63;1.00;;;;;;;19.69;52.62;99085.47;5153972;27;39866;-84
2022/10/25 15:26:52;;;;;;;1.30;0.90;;;;;;;19.55;53.15;99093.16;5136732;27;40806;-80
2022/10/25 15:29:46;;;;;;;1.50;0.80;;;;;;;19.29;53.49;99079.47;5153871;27;43775;-79
2022/10/25 15:32:17;;;;;;;0.90;0.80;;;;;;;19.23;53.65;99096.19;5153200;27;41920;-81
2022/10/25 15:34:48;;;;;;;1.13;0.70;;;;;;;18.97;53.93;99074.47;5154341;27;39564;-80
2022/10/25 15:37:18;;;;;;;1.00;0.70;;;;;;;18.93;54.31;99083.78;5136100;27;40601;-83
2022/10/25 15:39:47;;;;;;;0.70;0.70;;;;;;;18.79;54.59;99082.38;5153643;27;42850;-80
2022/10/25 15:42:15;;;;;;;2.33;0.80;;;;;;;18.67;54.70;99088.88;5146361;27;42267;-79
2022/10/25 15:44:43;;;;;;;1.10;0.80;;;;;;;18.56;54.81;99083.63;5154662;27;40725;-87
2022/10/25 15:47:36;;;;;;;0.80;0.70;;;;;;;18.33;55.61;99064.28;5153886;27;41261;-86
2022/10/25 15:50:15;;;;;;;3.37;1.10;;;;;;;18.31;55.81;99083.19;5134939;27;41829;-90
2022/10/25 15:52:43;;;;;;;2.60;0.87;;;;;;;18.17;55.81;99075.56;5130148;27;41361;-84
2022/10/25 15:55:19;;;;;;;1.27;1.00;;;;;;;18.02;56.25;99071.59;5155440;27;39913;-85
2022/10/25 15:57:47;;;;;;;2.70;1.10;;;;;;;17.83;56.39;99064.31;5135753;27;41872;-86
2022/10/25 16:00:18;;;;;;;2.10;1.10;;;;;;;17.83;56.38;99071.50;5153895;27;43961;-81
2022/10/25 16:02:46;;;;;;;2.37;1.07;;;;;;;17.68;56.56;99072.91;5152878;27;42179;-88
2022/10/25 16:05:21;;;;;;;1.10;0.97;;;;;;;17.57;56.84;99079.13;5136520;27;40486;-86
2022/10/25 16:07:49;;;;;;;2.33;1.07;;;;;;;17.35;57.41;99053.38;5135348;27;41700;-85
2022/10/25 16:10:17;;;;;;;1.97;1.03;;;;;;;17.25;57.37;99057.84;5136043;27;42918;-85
2022/10/25 16:12:49;;;;;;;1.53;1.00;;;;;;;17.16;57.48;99064.88;5135198;27;41134;-82
2022/10/25 16:15:18;;;;;;;0.70;0.67;;;;;;;17.09;57.85;99071.69;5135987;27;38518;-83
2022/10/25 16:17:47;;;;;;;1.43;0.97;;;;;;;16.99;57.92;99075.31;5151943;27;40917;-83
2022/10/25 16:20:19;;;;;;;3.53;0.90;;;;;;;16.82;58.28;99063.34;5135826;27;41970;-83
2022/10/25 16:22:48;;;;;;;2.80;1.20;;;;;;;16.66;58.41;99052.28;5134974;27;43027;-81
2022/10/25 16:25:17;;;;;;;1.73;1.00;;;;;;;16.56;58.52;99054.84;5153308;27;38554;-82
2022/10/25 16:27:46;;;;;;;1.67;0.90;;;;;;;16.57;58.79;99069.88;5134783;27;43946;-81
2022/10/25 16:30:16;;;;;;;1.50;1.00;;;;;;;16.40;58.95;99073.97;5153105;27;44841;-81
2022/10/25 16:32:44;;;;;;;0.97;0.83;;;;;;;16.26;59.27;99055.56;5151828;27;45166;-82
2022/10/25 16:35:14;;;;;;;1.33;0.90;;;;;;;16.26;59.35;99068.06;5137929;27;40049;-82
2022/10/25 16:37:43;;;;;;;2.83;1.27;;;;;;;16.17;59.34;99073.22;5156982;27;41437;-85
2022/10/25 16:40:15;;;;;;;3.77;1.97;;;;;;;16.10;60.04;99072.00;5139363;27;42054;-82
2022/10/25 16:42:44;;;;;;;1.40;1.30;;;;;;;16.01;60.17;99078.09;5138262;27;42729;-82
2022/10/25 16:45:17;;;;;;;1.80;1.27;;;;;;;15.92;60.40;99073.50;5156884;27;40063;-82
2022/10/25 16:47:45;;;;;;;2.33;1.50;;;;;;;15.85;60.76;99077.63;5154971;27;41771;-83
2022/10/25 16:50:13;;;;;;;3.17;1.67;;;;;;;15.69;60.67;99061.16;5156369;27;41877;-81
2022/10/25 16:52:43;;;;;;;1.83;1.20;;;;;;;15.66;60.47;99070.25;5138522;27;42139;-84
2022/10/25 16:55:11;;;;;;;1.83;1.50;;;;;;;15.62;60.81;99070.63;5156609;27;39983;-84
2022/10/25 16:57:38;;;;;;;1.80;1.37;;;;;;;15.55;60.84;99080.09;5155339;27;42453;-85
2022/10/25 17:00:09;;;;;;;2.97;1.67;;;;;;;15.46;61.11;99087.81;5156260;27;42777;-80
2022/10/25 17:02:38;;;;;;;2.47;1.90;;;;;;;15.40;61.09;99087.44;5137776;27;43076;-86
2022/10/25 17:05:07;;;;;;;3.60;2.20;;;;;;;15.22;61.68;99068.38;5156350;27;40173;-88
2022/10/25 17:07:34;;;;;;;2.63;2.23;;;;;;;15.26;61.96;99091.19;5138026;27;41845;-81
2022/10/25 17:10:04;;;;;;;2.67;2.00;;;;;;;15.20;62.10;99091.69;5156098;27;42448;-83
2022/10/25 17:12:31;;;;;;;2.87;2.47;;;;;;;15.12;61.98;99083.41;5155720;27;42999;-85
2022/10/25 17:14:59;;;;;;;2.20;1.63;;;;;;;15.06;62.34;99091.91;5156213;27;39645;-83
2022/10/25 17:17:27;;;;;;;3.27;1.83;;;;;;;14.99;62.60;99083.50;5154632;27;41637;-81
2022/10/25 17:19:54;;;;;;;2.17;1.80;;;;;;;14.93;62.82;99100.00;5155687;27;41742;-82
2022/10/25 17:22:24;;;;;;;2.60;1.70;;;;;;;14.86;62.81;99092.56;5154896;27;41238;-80
2022/10/25 17:24:51;;;;;;;3.33;2.23;;;;;;;14.78;63.41;99089.63;5155686;27;39768;-80
2022/10/25 17:27:21;;;;;;;3.40;2.10;;;;;;;14.71;63.27;99089.28;5155976;27;41712;-78
2022/10/25 17:29:48;;;;;;;3.60;2.43;;;;;;;14.59;63.55;99084.84;5137963;27;42942;-81
2022/10/25 17:32:16;;;;;;;2.60;2.40;;;;;;;14.55;64.17;99078.91;5154830;27;42779;-81
2022/10/25 17:34:43;;;;;;;4.93;3.23;;;;;;;14.33;64.55;99049.47;5155780;27;38866;-82
2022/10/25 17:37:11;;;;;;;3.17;2.60;;;;;;;14.44;64.52;99081.53;5137423;27;40921;-87
2022/10/25 17:39:39;;;;;;;3.17;2.63;;;;;;;14.39;64.60;99078.31;5155361;27;41993;-88
2022/10/25 17:42:07;;;;;;;2.50;2.07;;;;;;;14.20;64.62;99062.00;5137681;27;42652;-87
2022/10/25 17:44:36;;;;;;;2.30;2.10;;;;;;;14.22;64.74;99068.03;5155715;27;39561;-87
2022/10/25 17:47:04;;;;;;;3.00;2.67;;;;;;;14.06;65.55;99049.69;5136823;27;41345;-80
2022/10/25 17:49:33;;;;;;;5.20;2.77;;;;;;;14.06;65.69;99056.84;5155576;27;43100;-88
2022/10/25 17:52:01;;;;;;;3.60;2.80;;;;;;;13.99;65.58;99065.25;5154973;27;42439;-81
2022/10/25 17:54:29;;;;;;;3.50;3.20;;;;;;;14.01;65.94;99067.81;5138282;27;38775;-87
2022/10/25 17:56:59;;;;;;;2.77;2.40;;;;;;;13.83;65.72;99054.06;5154540;27;41406;-85
2022/10/25 17:59:27;;;;;;;4.10;2.60;;;;;;;13.92;65.78;99076.50;5172329;27;41809;-88
2022/10/25 18:01:57;;;;;;;4.33;2.57;;;;;;;13.76;66.09;99055.44;5154577;27;41310;-86
2022/10/25 18:04:25;;;;;;;3.37;2.83;;;;;;;13.70;66.04;99058.56;5155375;27;38889;-91
2022/10/25 18:06:53;;;;;;;3.80;2.63;;;;;;;13.42;66.07;99021.56;5136883;27;42417;-84
2022/10/25 18:09:20;;;;;;;3.70;2.80;;;;;;;13.58;66.19;99046.13;5155254;27;43669;-84
2022/10/25 18:11:48;;;;;;;3.20;2.50;;;;;;;13.66;66.21;99070.38;5154486;27;42400;-89
2022/10/25 18:14:16;;;;;;;3.03;2.60;;;;;;;13.50;66.59;99054.66;5157860;27;40363;-83
2022/10/25 18:16:43;;;;;;;2.93;2.63;;;;;;;13.57;66.74;99071.91;5157623;27;40506;-84
2022/10/25 18:19:14;;;;;;;2.60;2.40;;;;;;;13.53;66.70;99075.72;5157605;27;42389;-84
2022/10/25 18:21:42;;;;;;;4.73;3.00;;;;;;;13.38;66.93;99057.31;5137064;27;42404;-87
2022/10/25 18:24:12;;;;;;;2.53;2.33;;;;;;;13.42;66.91;99064.16;5155278;27;38592;-86
2022/10/25 18:26:40;;;;;;;3.87;2.43;;;;;;;13.38;67.47;99063.50;5154906;27;42335;-84
2022/10/25 18:29:08;;;;;;;2.83;2.63;;;;;;;13.24;67.59;99043.19;5154963;27;41717;-84
2022/10/25 18:31:36;;;;;;;3.30;3.00;;;;;;;13.17;67.41;99043.75;5136906;27;42503;-85
2022/10/25 18:34:04;;;;;;;3.47;3.10;;;;;;;13.11;67.76;99042.31;5137433;27;39216;-84
2022/10/25 18:36:33;;;;;;;3.60;3.07;;;;;;;13.09;67.83;99041.59;5137714;27;41817;-84
2022/10/25 18:39:01;;;;;;;3.53;3.07;;;;;;;13.19;68.10;99063.09;5137059;27;43076;-84
2022/10/25 18:41:31;;;;;;;4.13;2.90;;;;;;;13.11;68.04;99055.59;5154608;27;42056;-85
2022/10/25 18:43:59;;;;;;;3.77;3.03;;;;;;;13.06;68.34;99057.75;5154105;27;38926;-88
2022/10/25 18:46:29;;;;;;;3.47;2.53;;;;;;;13.06;68.38;99067.53;5155625;27;41934;-81
2022/10/25 18:48:57;;;;;;;4.67;2.97;;;;;;;12.85;68.47;99036.19;5136377;27;41977;-83
2022/10/25 18:51:27;;;;;;;4.10;3.00;;;;;;;12.96;68.90;99064.66;5153726;27;42324;-83
2022/10/25 18:53:59;;;;;;;3.57;3.17;;;;;;;12.90;68.96;99054.44;5155450;27;39540;-86
2022/10/25 18:56:29;;;;;;;3.53;3.23;;;;;;;12.81;68.94;99049.78;5152725;27;41586;-84
2022/10/25 18:58:57;;;;;;;4.40;3.40;;;;;;;12.84;68.89;99052.22;5153337;27;42586;-85
2022/10/25 19:01:27;;;;;;;4.57;3.60;;;;;;;12.67;69.19;99025.94;5154323;27;43459;-86
2022/10/25 19:03:56;;;;;;;5.73;3.73;;;;;;;12.70;69.50;99036.38;5155095;27;38842;-93
2022/10/25 19:06:25;;;;;;;3.80;3.40;;;;;;;12.74;69.41;99048.47;5138130;27;40717;-89
2022/10/25 19:08:52;;;;;;;10.17;4.13;;;;;;;12.59;69.40;99027.31;5136521;27;42856;-88
2022/10/25 19:11:21;;;;;;;6.10;3.83;;;;;;;12.65;69.77;99043.78;5137008;27;41852;-87
2022/10/25 19:13:53;;;;;;;4.37;3.90;;;;;;;12.63;69.95;99048.34;5135740;27;39134;-87
2022/10/25 19:16:21;;;;;;;4.47;2.90;;;;;;;12.59;69.85;99042.41;5136816;27;42176;-85
2022/10/25 19:18:49;;;;;;;3.77;3.00;;;;;;;12.44;70.29;99027.50;5135891;27;41868;-85
2022/10/25 19:21:18;;;;;;;5.57;3.90;;;;;;;12.32;70.44;99017.72;5154977;27;42282;-85
2022/10/25 19:23:46;;;;;;;4.13;3.73;;;;;;;12.37;70.51;99027.03;5153199;27;40525;-85
2022/10/25 19:26:16;;;;;;;4.20;3.27;;;;;;;12.44;70.68;99044.28;5153274;27;42671;-84
2022/10/25 19:28:46;;;;;;;3.90;3.50;;;;;;;12.40;70.57;99039.28;5152900;27;42704;-85
2022/10/25 19:31:16;;;;;;;5.67;4.03;;;;;;;12.21;70.58;99019.28;5153186;27;41347;-85
2022/10/25 19:33:46;;;;;;;4.43;3.40;;;;;;;12.32;70.93;99044.25;5135534;27;39203;-84
2022/10/25 19:36:13;;;;;;;6.30;4.53;;;;;;;12.29;71.12;99045.31;5153143;27;41595;-79
2022/10/25 19:38:41;;;;;;;3.80;3.27;;;;;;;12.27;71.16;99049.00;5153229;27;44033;-84
2022/10/25 19:41:13;;;;;;;5.23;3.67;;;;;;;12.24;70.97;99047.41;5135725;27;41184;-83
2022/10/25 19:43:40;;;;;;;3.27;2.97;;;;;;;12.21;70.99;99052.94;5135780;27;39571;-82
2022/10/25 19:46:10;;;;;;;5.20;3.70;;;;;;;12.16;71.16;99049.72;5135846;27;42003;-80
2022/10/25 19:48:38;;;;;;;4.43;3.73;;;;;;;11.96;71.15;99021.00;5153216;27;41906;-87
2022/10/25 19:51:07;;;;;;;5.63;4.20;;;;;;;12.09;71.46;99049.28;5152964;27;42220;-82
2022/10/25 19:53:36;;;;;;;5.27;4.00;;;;;;;11.98;71.23;99040.34;5153784;27;39985;-83
2022/10/25 19:56:06;;;;;;;6.90;4.63;;;;;;;12.02;71.56;99047.97;5153092;27;40898;-79
2022/10/25 19:58:33;;;;;;;5.20;4.37;;;;;;;12.00;71.76;99043.72;5152496;27;43075;-82
2022/10/25 20:01:06;;;;;;;5.67;4.97;;;;;;;11.86;71.94;99037.53;5153862;27;42128;-80
2022/10/25 20:03:36;;;;;;;4.60;3.60;;;;;;;11.96;72.13;99047.53;5149442;27;40156;-81
2022/10/25 20:06:07;;;;;;;5.70;4.27;;;;;;;11.86;72.35;99036.66;5135771;27;40738;-79
2022/10/25 20:08:36;;;;;;;7.37;4.30;;;;;;;11.80;72.16;99032.59;5135861;27;44456;-82
2022/10/25 20:11:04;;;;;;;4.60;4.00;;;;;;;11.87;72.44;99044.50;5152874;27;41287;-82
2022/10/25 20:13:33;;;;;;;4.20;3.77;;;;;;;11.90;72.65;99047.91;5135648;27;38887;-81
2022/10/25 20:16:01;;;;;;;4.83;3.47;;;;;;;11.79;72.28;99041.50;5154501;27;42537;-81